Time;durP1;ratioP1;P1;durP2;ratioP2;P2;SDS_P1;SDS_P2;PMS_P1;PMS_P2;Temp;Humidity;BMP_temperature;BMP_pressure;BME280_temperature;BME280_humidity;BME280_pressure;Samples;Min_cycle;Max_cycle;Signal;HPM_P1;HPM_P2
2023/12/18 00:02:25;;;;;;;22.30;8.45;;;;;;;;;;5008070;28;20067;-60
2023/12/18 00:04:51;;;;;;;21.45;8.13;;;;;;;;;;5008280;28;20131;-60
2023/12/18 00:07:18;;;;;;;16.80;7.43;;;;;;;;;;5022750;28;20037;-60
2023/12/18 00:09:44;;;;;;;20.75;7.43;;;;;;;;;;5002354;28;20738;-60
2023/12/18 00:12:11;;;;;;;23.13;7.82;;;;;;;;;;5007321;28;20525;-59
2023/12/18 00:14:37;;;;;;;19.35;7.65;;;;;;;;;;5008380;28;20045;-59
2023/12/18 00:17:03;;;;;;;25.55;8.68;;;;;;;;;;5006370;28;20057;-60
2023/12/18 00:19:29;;;;;;;21.10;8.27;;;;;;;;;;4997379;28;20037;-60
2023/12/18 00:21:56;;;;;;;21.67;7.65;;;;;;;;;;4998729;28;20797;-60
2023/12/18 00:24:22;;;;;;;20.75;8.23;;;;;;;;;;4999686;28;20029;-60
2023/12/18 00:26:48;;;;;;;22.80;7.65;;;;;;;;;;4998733;28;20030;-59
2023/12/18 00:29:14;;;;;;;17.48;7.38;;;;;;;;;;5000280;28;20042;-60
2023/12/18 00:31:40;;;;;;;15.05;6.43;;;;;;;;;;4998555;28;20045;-60
2023/12/18 00:34:06;;;;;;;22.85;6.75;;;;;;;;;;5000643;28;20037;-60
2023/12/18 00:36:32;;;;;;;18.30;6.78;;;;;;;;;;4999982;28;20040;-60
2023/12/18 00:38:58;;;;;;;22.70;7.65;;;;;;;;;;4998025;28;20037;-60
2023/12/18 00:41:24;;;;;;;21.00;7.00;;;;;;;;;;4998386;28;20028;-60
2023/12/18 00:43:50;;;;;;;19.27;6.53;;;;;;;;;;4998874;28;20030;-60
2023/12/18 00:46:16;;;;;;;16.50;7.10;;;;;;;;;;5000018;28;20037;-59
2023/12/18 00:48:42;;;;;;;19.73;6.50;;;;;;;;;;4998714;28;20037;-60
2023/12/18 00:51:11;;;;;;;19.90;6.68;;;;;;;;;;4998665;28;20037;-60
2023/12/18 00:53:37;;;;;;;21.25;6.47;;;;;;;;;;4998419;28;20056;-60
2023/12/18 00:56:03;;;;;;;14.73;6.75;;;;;;;;;;4998889;28;20050;-60
2023/12/18 00:58:29;;;;;;;22.85;8.18;;;;;;;;;;4997888;28;20043;-59
2023/12/18 01:00:55;;;;;;;19.40;6.82;;;;;;;;;;4998379;28;20033;-60
2023/12/18 01:03:22;;;;;;;20.55;8.07;;;;;;;;;;4999236;28;20037;-60
2023/12/18 01:05:48;;;;;;;16.80;7.15;;;;;;;;;;4999013;28;20037;-60
2023/12/18 01:08:15;;;;;;;19.50;7.38;;;;;;;;;;4998768;28;20038;-60
2023/12/18 01:10:41;;;;;;;20.73;6.25;;;;;;;;;;4998382;28;20807;-60
2023/12/18 01:13:07;;;;;;;17.52;6.78;;;;;;;;;;4999361;28;20053;-60
2023/12/18 01:15:33;;;;;;;18.90;6.72;;;;;;;;;;4998314;28;20109;-59
2023/12/18 01:17:59;;;;;;;23.20;7.05;;;;;;;;;;4998408;28;20025;-60
2023/12/18 01:20:25;;;;;;;22.67;6.25;;;;;;;;;;4998776;28;20033;-60
2023/12/18 01:22:51;;;;;;;22.27;6.95;;;;;;;;;;4998401;28;20032;-60
2023/12/18 01:25:17;;;;;;;26.30;6.88;;;;;;;;;;4998240;28;20038;-60
2023/12/18 01:27:43;;;;;;;17.50;6.03;;;;;;;;;;4999295;28;20033;-60
2023/12/18 01:30:10;;;;;;;20.52;5.90;;;;;;;;;;4997578;28;20156;-59
2023/12/18 01:32:36;;;;;;;23.90;7.22;;;;;;;;;;4998352;28;20041;-60
2023/12/18 01:35:02;;;;;;;15.98;5.35;;;;;;;;;;4997936;28;20035;-59
2023/12/18 01:37:28;;;;;;;21.17;5.32;;;;;;;;;;4998811;28;20029;-60
2023/12/18 01:39:54;;;;;;;22.00;6.85;;;;;;;;;;4998577;28;20824;-60
2023/12/18 01:42:20;;;;;;;26.60;6.57;;;;;;;;;;4996869;28;20120;-60
2023/12/18 01:44:48;;;;;;;19.08;5.20;;;;;;;;;;4998845;28;20057;-60
2023/12/18 01:47:15;;;;;;;19.60;5.57;;;;;;;;;;4998600;28;20036;-60
2023/12/18 01:49:41;;;;;;;23.83;6.97;;;;;;;;;;4997590;28;20037;-60
2023/12/18 01:52:07;;;;;;;19.95;6.65;;;;;;;;;;4998089;28;20129;-60
2023/12/18 01:54:33;;;;;;;13.40;5.00;;;;;;;;;;5006023;28;20042;-60
2023/12/18 01:56:59;;;;;;;21.10;5.93;;;;;;;;;;5005656;28;20417;-60
2023/12/18 01:59:25;;;;;;;15.98;5.28;;;;;;;;;;5006007;28;20140;-59
2023/12/18 02:01:52;;;;;;;26.70;5.70;;;;;;;;;;5004574;28;20219;-60
2023/12/18 02:04:19;;;;;;;16.17;5.32;;;;;;;;;;5005387;28;20045;-60
2023/12/18 02:06:45;;;;;;;18.35;5.32;;;;;;;;;;5005305;28;20029;-59
2023/12/18 02:09:12;;;;;;;19.13;4.95;;;;;;;;;;5005353;28;20509;-59
2023/12/18 02:11:38;;;;;;;19.15;5.35;;;;;;;;;;5005548;28;20029;-60
2023/12/18 02:14:05;;;;;;;14.27;4.68;;;;;;;;;;5006122;28;20040;-60
2023/12/18 02:16:31;;;;;;;19.02;5.03;;;;;;;;;;5005442;28;20034;-60
2023/12/18 02:18:57;;;;;;;20.25;5.35;;;;;;;;;;5005914;28;20114;-60
2023/12/18 02:21:23;;;;;;;26.50;6.30;;;;;;;;;;5005172;28;21836;-60
2023/12/18 02:23:50;;;;;;;15.70;5.95;;;;;;;;;;5006235;28;20042;-60
2023/12/18 02:26:16;;;;;;;16.45;4.32;;;;;;;;;;5004989;28;20137;-60
2023/12/18 02:28:44;;;;;;;19.02;4.63;;;;;;;;;;5005587;28;20042;-60
2023/12/18 02:31:13;;;;;;;17.58;4.88;;;;;;;;;;5005400;28;20630;-60
2023/12/18 02:33:39;;;;;;;16.23;4.30;;;;;;;;;;5004901;28;20026;-60
2023/12/18 02:36:05;;;;;;;20.80;5.07;;;;;;;;;;5005712;28;20654;-59
2023/12/18 02:38:31;;;;;;;16.45;3.85;;;;;;;;;;5005226;28;20036;-60
2023/12/18 02:40:57;;;;;;;15.35;3.70;;;;;;;;;;5005917;28;20029;-60
2023/12/18 02:43:23;;;;;;;16.58;4.43;;;;;;;;;;4989860;28;20120;-59
2023/12/18 02:45:49;;;;;;;12.32;3.67;;;;;;;;;;5006004;28;20053;-60
2023/12/18 02:48:15;;;;;;;13.88;3.50;;;;;;;;;;5005742;28;20616;-60
2023/12/18 02:50:41;;;;;;;22.63;4.43;;;;;;;;;;5005089;28;20941;-60
2023/12/18 02:53:08;;;;;;;15.32;3.35;;;;;;;;;;5006260;28;20096;-59
2023/12/18 02:55:34;;;;;;;14.05;3.13;;;;;;;;;;5005256;28;20588;-60
2023/12/18 02:58:00;;;;;;;14.68;5.15;;;;;;;;;;5005901;28;20653;-60
2023/12/18 03:00:26;;;;;;;18.52;3.53;;;;;;;;;;5005830;28;20432;-59
2023/12/18 03:02:52;;;;;;;13.20;2.85;;;;;;;;;;5004914;28;20038;-59
2023/12/18 03:05:18;;;;;;;12.70;2.95;;;;;;;;;;5004121;28;20029;-60
2023/12/18 03:07:44;;;;;;;11.23;3.05;;;;;;;;;;5005529;28;20034;-60
2023/12/18 03:10:11;;;;;;;12.38;3.63;;;;;;;;;;5006039;28;20092;-60
2023/12/18 03:12:37;;;;;;;14.30;3.38;;;;;;;;;;5005021;28;20037;-60
2023/12/18 03:15:03;;;;;;;9.80;3.00;;;;;;;;;;5003527;28;20051;-60
2023/12/18 03:17:29;;;;;;;12.65;3.13;;;;;;;;;;5004316;28;20136;-60
2023/12/18 03:19:55;;;;;;;11.70;3.00;;;;;;;;;;5005071;28;20111;-60
2023/12/18 03:22:21;;;;;;;15.05;3.20;;;;;;;;;;5007621;28;20036;-60
2023/12/18 03:24:47;;;;;;;14.95;3.22;;;;;;;;;;5008826;28;21229;-59
2023/12/18 03:27:13;;;;;;;15.32;3.08;;;;;;;;;;5008489;28;20057;-59
2023/12/18 03:29:39;;;;;;;15.68;2.88;;;;;;;;;;5004607;28;20101;-59
2023/12/18 03:32:06;;;;;;;19.90;3.65;;;;;;;;;;5005929;28;20516;-60
2023/12/18 03:34:32;;;;;;;21.20;5.32;;;;;;;;;;5007120;28;20030;-60
2023/12/18 03:36:59;;;;;;;17.52;4.03;;;;;;;;;;5008167;28;20669;-59
2023/12/18 03:39:25;;;;;;;14.48;4.03;;;;;;;;;;5008776;28;20033;-59
2023/12/18 03:41:51;;;;;;;15.95;3.92;;;;;;;;;;5008729;28;20816;-59
2023/12/18 03:44:17;;;;;;;18.48;4.95;;;;;;;;;;5008333;28;20037;-59
2023/12/18 03:46:43;;;;;;;16.38;4.10;;;;;;;;;;5008081;28;20072;-59
2023/12/18 03:49:09;;;;;;;14.18;4.45;;;;;;;;;;5007762;28;20086;-60
2023/12/18 03:51:35;;;;;;;15.73;4.32;;;;;;;;;;5008094;28;20634;-60
2023/12/18 03:54:01;;;;;;;16.95;4.45;;;;;;;;;;5008673;28;20041;-59
2023/12/18 03:56:27;;;;;;;19.05;4.43;;;;;;;;;;5008416;28;20061;-59
2023/12/18 03:58:53;;;;;;;17.05;6.18;;;;;;;;;;5008279;28;20042;-59
2023/12/18 04:01:20;;;;;;;17.52;4.55;;;;;;;;;;5007138;28;20045;-59
2023/12/18 04:03:46;;;;;;;14.05;4.18;;;;;;;;;;5008063;28;20040;-60
2023/12/18 04:06:12;;;;;;;17.67;4.50;;;;;;;;;;5008061;28;20136;-60
2023/12/18 04:08:39;;;;;;;18.35;4.45;;;;;;;;;;5006988;28;20124;-60
2023/12/18 04:11:05;;;;;;;18.67;4.75;;;;;;;;;;5008132;28;20173;-60
2023/12/18 04:13:32;;;;;;;14.18;4.35;;;;;;;;;;5007724;28;20326;-59
2023/12/18 04:15:58;;;;;;;16.27;4.63;;;;;;;;;;5007351;28;20034;-59
2023/12/18 04:18:24;;;;;;;20.08;4.82;;;;;;;;;;5007734;28;20065;-60
2023/12/18 04:20:50;;;;;;;19.80;4.63;;;;;;;;;;5007453;28;20107;-60
2023/12/18 04:23:16;;;;;;;13.20;4.55;;;;;;;;;;5007734;28;20045;-60
2023/12/18 04:25:42;;;;;;;15.48;4.47;;;;;;;;;;5007514;28;20037;-59
2023/12/18 04:28:08;;;;;;;19.75;5.30;;;;;;;;;;5006854;28;20033;-60
2023/12/18 04:30:34;;;;;;;14.10;4.80;;;;;;;;;;5005645;28;20038;-60
2023/12/18 04:33:00;;;;;;;17.98;6.32;;;;;;;;;;5005788;28;20185;-60
2023/12/18 04:35:26;;;;;;;19.48;4.85;;;;;;;;;;5007514;28;20210;-60
2023/12/18 04:37:52;;;;;;;14.15;4.30;;;;;;;;;;5007000;28;20131;-60
2023/12/18 04:40:18;;;;;;;19.35;5.45;;;;;;;;;;5006296;28;20460;-59
2023/12/18 04:42:44;;;;;;;20.42;5.47;;;;;;;;;;5006774;28;20452;-59
2023/12/18 04:45:10;;;;;;;23.48;6.15;;;;;;;;;;5006995;28;20078;-59
2023/12/18 04:47:36;;;;;;;17.55;4.90;;;;;;;;;;5007276;28;20025;-60
2023/12/18 04:50:02;;;;;;;13.85;4.82;;;;;;;;;;5007598;28;20033;-60
2023/12/18 04:52:28;;;;;;;28.58;5.75;;;;;;;;;;5006685;28;20025;-60
2023/12/18 04:54:54;;;;;;;17.77;5.68;;;;;;;;;;5002211;28;20112;-59
2023/12/18 04:57:20;;;;;;;17.80;5.25;;;;;;;;;;5006859;28;20071;-60
2023/12/18 04:59:46;;;;;;;23.77;6.18;;;;;;;;;;5007478;28;20037;-60
2023/12/18 05:02:12;;;;;;;18.48;5.30;;;;;;;;;;5006419;28;20033;-60
2023/12/18 05:04:39;;;;;;;17.48;5.57;;;;;;;;;;5006787;28;20030;-60
2023/12/18 05:07:07;;;;;;;20.27;5.78;;;;;;;;;;5006660;28;20038;-59
2023/12/18 05:09:33;;;;;;;20.60;5.95;;;;;;;;;;5007148;28;20530;-60
2023/12/18 05:11:59;;;;;;;15.40;4.75;;;;;;;;;;5006084;28;20041;-60
2023/12/18 05:14:26;;;;;;;20.92;5.55;;;;;;;;;;5021703;28;20033;-60
2023/12/18 05:16:52;;;;;;;16.73;5.18;;;;;;;;;;5006802;28;20033;-60
2023/12/18 05:19:18;;;;;;;16.75;6.32;;;;;;;;;;5005480;28;20041;-60
2023/12/18 05:21:44;;;;;;;13.95;5.55;;;;;;;;;;5006745;28;20075;-59
2023/12/18 05:24:10;;;;;;;17.63;5.38;;;;;;;;;;5006718;28;20040;-59
2023/12/18 05:26:36;;;;;;;20.73;5.38;;;;;;;;;;5006459;28;20048;-60
2023/12/18 05:29:02;;;;;;;16.80;5.65;;;;;;;;;;5006509;28;20927;-59
2023/12/18 05:31:28;;;;;;;17.58;5.72;;;;;;;;;;5005933;28;20579;-60
2023/12/18 05:33:54;;;;;;;18.52;5.68;;;;;;;;;;5005884;28;20063;-60
2023/12/18 05:36:20;;;;;;;19.10;7.20;;;;;;;;;;5021314;28;20042;-60
2023/12/18 05:38:46;;;;;;;21.02;6.05;;;;;;;;;;5006024;28;20050;-59
2023/12/18 05:41:13;;;;;;;17.52;6.57;;;;;;;;;;5006447;28;20030;-60
2023/12/18 05:43:39;;;;;;;19.95;5.78;;;;;;;;;;5005456;28;20069;-60
2023/12/18 05:46:05;;;;;;;15.10;6.15;;;;;;;;;;5005851;28;20046;-59
2023/12/18 05:48:31;;;;;;;18.38;6.05;;;;;;;;;;5006487;28;20146;-60
2023/12/18 05:50:57;;;;;;;22.00;6.30;;;;;;;;;;5006471;28;20038;-60
2023/12/18 05:53:23;;;;;;;16.48;6.20;;;;;;;;;;5006064;28;20080;-60
2023/12/18 05:55:49;;;;;;;18.27;5.72;;;;;;;;;;5006350;28;20069;-60
2023/12/18 05:58:15;;;;;;;16.73;6.05;;;;;;;;;;5005415;28;20088;-60
2023/12/18 06:00:41;;;;;;;18.80;5.80;;;;;;;;;;5005565;28;20084;-59
2023/12/18 06:03:07;;;;;;;18.08;6.00;;;;;;;;;;5005632;28;20041;-59
2023/12/18 06:05:33;;;;;;;19.63;6.50;;;;;;;;;;5001559;28;20087;-59
2023/12/18 06:07:59;;;;;;;22.77;6.97;;;;;;;;;;5006147;28;20049;-60
2023/12/18 06:10:25;;;;;;;18.58;5.95;;;;;;;;;;5005476;28;20032;-59
2023/12/18 06:12:51;;;;;;;17.33;7.07;;;;;;;;;;5004656;28;20044;-60
2023/12/18 06:15:17;;;;;;;17.70;5.85;;;;;;;;;;5004876;28;20048;-60
2023/12/18 06:17:43;;;;;;;15.70;5.88;;;;;;;;;;5005918;28;20034;-60
2023/12/18 06:20:09;;;;;;;17.00;5.93;;;;;;;;;;5005709;28;20030;-59
2023/12/18 06:22:35;;;;;;;22.27;8.20;;;;;;;;;;5004895;28;20033;-59
2023/12/18 06:25:03;;;;;;;22.30;6.60;;;;;;;;;;5002745;28;20025;-59
2023/12/18 06:27:29;;;;;;;15.85;6.15;;;;;;;;;;5005936;28;20043;-60
2023/12/18 06:29:55;;;;;;;22.65;6.55;;;;;;;;;;5002834;28;20147;-60
2023/12/18 06:32:21;;;;;;;21.63;6.45;;;;;;;;;;5004553;28;20037;-60
2023/12/18 06:34:47;;;;;;;13.68;5.75;;;;;;;;;;5005698;28;20503;-60
2023/12/18 06:37:13;;;;;;;27.90;8.10;;;;;;;;;;5004775;28;20532;-60
2023/12/18 06:39:39;;;;;;;18.77;6.40;;;;;;;;;;5004688;28;20124;-60
2023/12/18 06:42:06;;;;;;;25.88;7.53;;;;;;;;;;5005280;28;20145;-60
2023/12/18 06:44:32;;;;;;;19.38;6.05;;;;;;;;;;5006000;28;20034;-60
2023/12/18 06:46:58;;;;;;;16.75;6.22;;;;;;;;;;5002957;28;20041;-60
2023/12/18 06:49:24;;;;;;;19.25;6.70;;;;;;;;;;5005204;28;20041;-60
2023/12/18 06:51:50;;;;;;;18.20;6.30;;;;;;;;;;5005494;28;20037;-59
2023/12/18 06:54:17;;;;;;;26.60;8.00;;;;;;;;;;5005211;28;20037;-60
2023/12/18 06:56:43;;;;;;;18.73;7.32;;;;;;;;;;5008143;28;20096;-60
2023/12/18 06:59:09;;;;;;;20.55;6.32;;;;;;;;;;5009280;28;20045;-60
2023/12/18 07:01:35;;;;;;;20.52;6.82;;;;;;;;;;5008990;28;20515;-60
2023/12/18 07:04:02;;;;;;;20.90;7.47;;;;;;;;;;5011605;28;20825;-60
2023/12/18 07:06:29;;;;;;;20.02;6.85;;;;;;;;;;5008005;28;20030;-60
2023/12/18 07:08:56;;;;;;;22.33;7.70;;;;;;;;;;5009251;28;20038;-60
2023/12/18 07:11:22;;;;;;;20.42;7.57;;;;;;;;;;5009060;28;20034;-60
2023/12/18 07:13:48;;;;;;;25.33;8.25;;;;;;;;;;5008598;28;20029;-60
2023/12/18 07:16:20;;;;;;;19.45;7.40;;;;;;;;;;5008957;28;20045;-60
2023/12/18 07:18:46;;;;;;;26.63;7.97;;;;;;;;;;5008770;28;20030;-60
2023/12/18 07:21:12;;;;;;;20.70;7.03;;;;;;;;;;5007829;28;20267;-60
2023/12/18 07:23:42;;;;;;;17.38;7.00;;;;;;;;;;5008617;28;20022;-60
2023/12/18 07:26:12;;;;;;;16.05;7.43;;;;;;;;;;5008535;28;20493;-60
2023/12/18 07:28:38;;;;;;;22.33;8.73;;;;;;;;;;5023034;28;20115;-60
2023/12/18 07:31:04;;;;;;;18.35;8.30;;;;;;;;;;5008049;28;20694;-60
2023/12/18 07:33:30;;;;;;;18.13;7.85;;;;;;;;;;5006003;28;20892;-60
2023/12/18 07:35:56;;;;;;;17.35;8.30;;;;;;;;;;5005633;28;20041;-60
2023/12/18 07:38:22;;;;;;;24.85;9.50;;;;;;;;;;5006665;28;20037;-60
2023/12/18 07:40:49;;;;;;;23.70;9.57;;;;;;;;;;5007279;28;20161;-60
2023/12/18 07:43:15;;;;;;;21.08;8.07;;;;;;;;;;5007415;28;20132;-59
2023/12/18 07:45:41;;;;;;;26.10;8.57;;;;;;;;;;5007408;28;20116;-60
2023/12/18 07:48:08;;;;;;;26.83;8.38;;;;;;;;;;5007404;28;20038;-60
2023/12/18 07:50:34;;;;;;;19.42;8.05;;;;;;;;;;5007808;28;20037;-60
2023/12/18 07:53:00;;;;;;;22.98;8.50;;;;;;;;;;5005836;28;20707;-60
2023/12/18 07:55:26;;;;;;;24.75;8.82;;;;;;;;;;5006828;28;20585;-60
2023/12/18 07:57:52;;;;;;;22.98;9.57;;;;;;;;;;5006887;28;20033;-60
2023/12/18 08:00:18;;;;;;;22.45;7.88;;;;;;;;;;5007045;28;20042;-60
2023/12/18 08:02:44;;;;;;;24.17;8.48;;;;;;;;;;5006961;28;20052;-60
2023/12/18 08:05:10;;;;;;;21.15;7.78;;;;;;;;;;5005532;28;21935;-60
2023/12/18 08:07:36;;;;;;;22.98;9.25;;;;;;;;;;5004423;28;20038;-60
2023/12/18 08:10:03;;;;;;;17.70;7.82;;;;;;;;;;4994903;28;20030;-60
2023/12/18 08:12:29;;;;;;;25.30;8.15;;;;;;;;;;4997969;28;20056;-60
2023/12/18 08:14:55;;;;;;;21.85;8.73;;;;;;;;;;4997695;28;20489;-60
2023/12/18 08:17:21;;;;;;;20.40;8.57;;;;;;;;;;4998449;28;20038;-59
2023/12/18 08:19:47;;;;;;;25.75;7.90;;;;;;;;;;4997508;28;20029;-60
2023/12/18 08:22:13;;;;;;;20.27;8.15;;;;;;;;;;4997435;28;20018;-60
2023/12/18 08:24:40;;;;;;;20.17;8.30;;;;;;;;;;4999129;28;20080;-60
2023/12/18 08:27:06;;;;;;;22.23;8.45;;;;;;;;;;4998694;28;20034;-60
2023/12/18 08:29:32;;;;;;;27.75;9.50;;;;;;;;;;4999101;28;20134;-60
2023/12/18 08:31:58;;;;;;;20.20;8.43;;;;;;;;;;4997159;28;20030;-59
2023/12/18 08:34:24;;;;;;;18.35;8.90;;;;;;;;;;4998311;28;20253;-60
2023/12/18 08:36:52;;;;;;;22.30;8.93;;;;;;;;;;4998550;28;20048;-59
2023/12/18 08:39:18;;;;;;;22.52;8.85;;;;;;;;;;4998710;28;20770;-60
2023/12/18 08:41:47;;;;;;;29.60;9.75;;;;;;;;;;4997603;28;20473;-60
2023/12/18 08:44:13;;;;;;;22.98;9.57;;;;;;;;;;4997881;28;20037;-60
2023/12/18 08:46:39;;;;;;;21.70;8.45;;;;;;;;;;4998244;28;20053;-59
2023/12/18 08:49:05;;;;;;;24.13;9.68;;;;;;;;;;4996116;28;20114;-59
2023/12/18 08:51:31;;;;;;;24.38;9.35;;;;;;;;;;4996956;28;20021;-60
2023/12/18 08:53:57;;;;;;;22.80;10.18;;;;;;;;;;4997870;28;20033;-60
2023/12/18 08:56:27;;;;;;;29.90;10.95;;;;;;;;;;4997318;28;20045;-60
2023/12/18 08:58:55;;;;;;;25.73;9.02;;;;;;;;;;4996050;28;20707;-60
2023/12/18 09:01:21;;;;;;;29.13;10.55;;;;;;;;;;4996571;28;20092;-59
2023/12/18 09:03:47;;;;;;;23.48;8.75;;;;;;;;;;4996719;28;20061;-60
2023/12/18 09:06:13;;;;;;;25.00;10.32;;;;;;;;;;4996015;28;20060;-60
2023/12/18 09:08:40;;;;;;;31.52;9.57;;;;;;;;;;4996362;28;20033;-60
2023/12/18 09:11:09;;;;;;;20.42;8.57;;;;;;;;;;4997287;28;20099;-60
2023/12/18 09:13:36;;;;;;;22.48;9.25;;;;;;;;;;4997017;28;20828;-59
2023/12/18 09:16:03;;;;;;;27.25;9.18;;;;;;;;;;4996003;28;20136;-60
2023/12/18 09:18:29;;;;;;;25.42;9.25;;;;;;;;;;4996013;28;20038;-60
2023/12/18 09:20:55;;;;;;;26.13;9.20;;;;;;;;;;4995283;28;20133;-60
2023/12/18 09:23:21;;;;;;;24.40;7.97;;;;;;;;;;4996643;28;20073;-60
2023/12/18 09:25:47;;;;;;;20.25;8.90;;;;;;;;;;4996871;28;20034;-60
2023/12/18 09:28:13;;;;;;;22.27;8.75;;;;;;;;;;4996976;28;20041;-60
2023/12/18 09:30:40;;;;;;;19.70;8.38;;;;;;;;;;4996279;28;20027;-60
2023/12/18 09:33:06;;;;;;;21.92;8.48;;;;;;;;;;4996264;28;20262;-60
2023/12/18 09:35:33;;;;;;;22.23;8.52;;;;;;;;;;4997268;28;20041;-60
2023/12/18 09:37:59;;;;;;;22.27;8.70;;;;;;;;;;4996686;28;20066;-60
2023/12/18 09:40:25;;;;;;;25.77;8.82;;;;;;;;;;4995908;28;20029;-60
2023/12/18 09:42:54;;;;;;;31.73;10.00;;;;;;;;;;4997718;28;20029;-60
2023/12/18 09:45:25;;;;;;;24.95;9.77;;;;;;;;;;4997029;28;20551;-60
2023/12/18 09:47:51;;;;;;;26.25;9.07;;;;;;;;;;4997936;28;20773;-59
2023/12/18 09:50:17;;;;;;;27.20;10.77;;;;;;;;;;4996632;28;20033;-60
2023/12/18 09:52:51;;;;;;;30.48;9.18;;;;;;;;;;4996469;28;20056;-60
2023/12/18 09:55:18;;;;;;;23.38;9.65;;;;;;;;;;4996598;28;20404;-60
2023/12/18 09:57:45;;;;;;;25.80;8.98;;;;;;;;;;4996732;28;20091;-59
2023/12/18 10:00:12;;;;;;;21.15;7.88;;;;;;;;;;4996196;28;20135;-59
2023/12/18 10:02:40;;;;;;;27.55;8.82;;;;;;;;;;4996866;28;20026;-59
2023/12/18 10:05:06;;;;;;;25.25;9.38;;;;;;;;;;4996935;28;20034;-60
2023/12/18 10:07:32;;;;;;;23.88;8.80;;;;;;;;;;4995865;28;20139;-60
2023/12/18 10:09:59;;;;;;;25.13;9.60;;;;;;;;;;4997937;28;20052;-60
2023/12/18 10:12:25;;;;;;;22.52;8.45;;;;;;;;;;4997644;28;20018;-59
2023/12/18 10:14:51;;;;;;;19.73;8.85;;;;;;;;;;4998284;28;20026;-60
2023/12/18 10:17:19;;;;;;;22.88;9.10;;;;;;;;;;4998163;28;20076;-60
2023/12/18 10:19:45;;;;;;;29.02;9.95;;;;;;;;;;4996044;28;20030;-59
2023/12/18 10:22:11;;;;;;;23.33;9.85;;;;;;;;;;4995889;28;20042;-60
2023/12/18 10:24:41;;;;;;;23.38;9.20;;;;;;;;;;4995205;28;20025;-60
2023/12/18 10:27:07;;;;;;;22.08;10.10;;;;;;;;;;4985697;28;20025;-60
2023/12/18 10:29:33;;;;;;;19.30;9.27;;;;;;;;;;4990114;28;20057;-59
2023/12/18 10:31:59;;;;;;;22.55;9.73;;;;;;;;;;4993010;28;20033;-60
2023/12/18 10:34:25;;;;;;;28.55;10.70;;;;;;;;;;4992912;28;20166;-60
2023/12/18 10:36:53;;;;;;;22.10;9.43;;;;;;;;;;4993624;28;20030;-59
2023/12/18 10:39:20;;;;;;;26.02;10.10;;;;;;;;;;4994342;28;20611;-60
2023/12/18 10:41:52;;;;;;;20.77;8.98;;;;;;;;;;4992809;28;20062;-60
2023/12/18 10:44:18;;;;;;;29.05;10.30;;;;;;;;;;4994015;28;20114;-60
2023/12/18 10:46:45;;;;;;;35.28;10.52;;;;;;;;;;4994834;28;20037;-60
2023/12/18 10:49:11;;;;;;;32.47;10.15;;;;;;;;;;4989100;28;20048;-60
2023/12/18 10:51:39;;;;;;;23.80;10.63;;;;;;;;;;4993532;28;21211;-60
2023/12/18 10:54:06;;;;;;;28.50;9.55;;;;;;;;;;4991196;28;20096;-60
2023/12/18 10:56:33;;;;;;;23.58;9.93;;;;;;;;;;4991644;28;20054;-60
2023/12/18 10:59:00;;;;;;;23.42;9.68;;;;;;;;;;4993441;28;20161;-59
2023/12/18 11:01:27;;;;;;;24.60;9.80;;;;;;;;;;4994391;28;20152;-60
2023/12/18 11:03:54;;;;;;;24.73;10.00;;;;;;;;;;4994900;28;20739;-60
2023/12/18 11:06:21;;;;;;;18.42;10.13;;;;;;;;;;4993362;28;20029;-60
2023/12/18 11:08:47;;;;;;;24.23;10.57;;;;;;;;;;4993572;28;20523;-59
2023/12/18 11:11:14;;;;;;;23.77;10.07;;;;;;;;;;4991515;28;20033;-60
2023/12/18 11:13:50;;;;;;;24.05;10.32;;;;;;;;;;4993920;28;20040;-60
2023/12/18 11:16:19;;;;;;;25.48;10.93;;;;;;;;;;4994904;28;20140;-60
2023/12/18 11:19:12;;;;;;;31.35;10.90;;;;;;;;;;4994249;28;20087;-59
2023/12/18 11:21:38;;;;;;;26.45;11.50;;;;;;;;;;4992643;28;20041;-59
2023/12/18 11:24:04;;;;;;;23.30;11.82;;;;;;;;;;4993443;28;21723;-60
2023/12/18 11:26:30;;;;;;;22.23;10.85;;;;;;;;;;4993523;28;20084;-60
2023/12/18 11:29:16;;;;;;;26.33;11.68;;;;;;;;;;4999485;28;20564;-60
2023/12/18 11:31:42;;;;;;;27.38;10.95;;;;;;;;;;5004185;28;20041;-59
2023/12/18 11:34:10;;;;;;;26.95;10.90;;;;;;;;;;4998907;28;20036;-59
2023/12/18 11:36:36;;;;;;;27.63;11.02;;;;;;;;;;4999766;28;20163;-60
2023/12/18 11:39:03;;;;;;;23.85;10.88;;;;;;;;;;4999341;28;20037;-60
2023/12/18 11:41:46;;;;;;;27.77;10.40;;;;;;;;;;4999694;28;20038;-59
2023/12/18 11:44:13;;;;;;;25.02;10.90;;;;;;;;;;4999783;28;20021;-64
2023/12/18 11:46:40;;;;;;;21.83;10.30;;;;;;;;;;4999974;28;20262;-64
2023/12/18 11:49:07;;;;;;;19.20;9.52;;;;;;;;;;5000058;28;20112;-64
2023/12/18 11:51:33;;;;;;;21.95;10.93;;;;;;;;;;4998757;28;20033;-64
2023/12/18 11:53:59;;;;;;;23.63;9.45;;;;;;;;;;4999785;28;20444;-65
2023/12/18 11:56:27;;;;;;;23.92;10.13;;;;;;;;;;4999267;28;20063;-65
2023/12/18 11:58:55;;;;;;;30.33;11.73;;;;;;;;;;4999139;28;20029;-64
2023/12/18 12:01:21;;;;;;;27.60;12.30;;;;;;;;;;4998906;28;20057;-64
2023/12/18 12:03:47;;;;;;;23.90;10.95;;;;;;;;;;4998048;28;20025;-65
2023/12/18 12:06:14;;;;;;;23.98;10.32;;;;;;;;;;5000159;28;20018;-65
2023/12/18 12:08:47;;;;;;;23.30;11.38;;;;;;;;;;5013993;28;20499;-64
2023/12/18 12:11:14;;;;;;;24.63;10.70;;;;;;;;;;4998516;28;20026;-65
2023/12/18 12:13:40;;;;;;;20.67;9.88;;;;;;;;;;4998298;28;21879;-65
2023/12/18 12:16:06;;;;;;;23.58;9.57;;;;;;;;;;4999656;28;20042;-64
2023/12/18 12:18:34;;;;;;;24.52;9.65;;;;;;;;;;4998876;28;20080;-65
2023/12/18 12:21:00;;;;;;;25.60;10.77;;;;;;;;;;4999357;28;20025;-64
2023/12/18 12:23:27;;;;;;;23.48;10.43;;;;;;;;;;4996413;28;20072;-64
2023/12/18 12:25:56;;;;;;;22.88;10.10;;;;;;;;;;4999258;28;20091;-65
2023/12/18 12:28:22;;;;;;;32.85;11.05;;;;;;;;;;4999731;28;20033;-65
2023/12/18 12:30:48;;;;;;;27.95;11.45;;;;;;;;;;4998877;28;20057;-65
2023/12/18 12:33:16;;;;;;;24.58;10.20;;;;;;;;;;4998039;28;20034;-65
2023/12/18 12:35:42;;;;;;;17.52;9.73;;;;;;;;;;4997272;28;20082;-65
2023/12/18 12:38:08;;;;;;;22.17;10.32;;;;;;;;;;4996119;28;20034;-65
2023/12/18 12:40:38;;;;;;;20.00;10.52;;;;;;;;;;4998042;28;20026;-65
2023/12/18 12:43:05;;;;;;;25.30;11.00;;;;;;;;;;4996541;28;20030;-65
2023/12/18 12:45:31;;;;;;;20.50;11.10;;;;;;;;;;4996599;28;20040;-64
2023/12/18 12:47:58;;;;;;;21.42;11.48;;;;;;;;;;4998146;28;20026;-65
2023/12/18 12:50:24;;;;;;;21.90;11.30;;;;;;;;;;4999569;28;20049;-65
2023/12/18 12:52:51;;;;;;;22.77;11.32;;;;;;;;;;4996717;28;20104;-65
2023/12/18 12:55:17;;;;;;;26.45;10.77;;;;;;;;;;4996463;28;21715;-64
2023/12/18 12:57:43;;;;;;;30.88;12.38;;;;;;;;;;4997795;28;20037;-64
2023/12/18 13:00:09;;;;;;;26.23;11.35;;;;;;;;;;4999934;28;20477;-64
2023/12/18 13:02:35;;;;;;;23.05;11.30;;;;;;;;;;5010287;28;21670;-64
2023/12/18 13:05:02;;;;;;;23.30;12.25;;;;;;;;;;4997520;28;20119;-64
2023/12/18 13:07:28;;;;;;;24.98;12.30;;;;;;;;;;4996271;28;20057;-65
2023/12/18 13:09:54;;;;;;;36.70;13.73;;;;;;;;;;4994777;28;20073;-65
2023/12/18 13:12:21;;;;;;;26.55;11.75;;;;;;;;;;4994192;28;20034;-64
2023/12/18 13:14:48;;;;;;;24.38;12.13;;;;;;;;;;4997852;28;20034;-65
2023/12/18 13:17:15;;;;;;;28.95;12.20;;;;;;;;;;4998324;28;20033;-64
2023/12/18 13:19:41;;;;;;;30.35;12.88;;;;;;;;;;4998668;28;20029;-64
2023/12/18 13:22:08;;;;;;;23.45;12.25;;;;;;;;;;4998708;28;20881;-64
2023/12/18 13:24:34;;;;;;;22.88;11.90;;;;;;;;;;4997792;28;20040;-65
2023/12/18 13:27:00;;;;;;;22.98;11.55;;;;;;;;;;4996717;28;20033;-65
2023/12/18 13:29:33;;;;;;;24.73;12.45;;;;;;;;;;4996728;28;20026;-65
2023/12/18 13:32:03;;;;;;;29.53;12.73;;;;;;;;;;4997704;28;20037;-65
2023/12/18 13:34:31;;;;;;;18.48;10.80;;;;;;;;;;4997470;28;20048;-64
2023/12/18 13:36:57;;;;;;;25.80;12.73;;;;;;;;;;4997702;28;20033;-64
2023/12/18 13:39:23;;;;;;;27.48;11.93;;;;;;;;;;4997360;28;20519;-65
2023/12/18 13:41:54;;;;;;;37.20;13.23;;;;;;;;;;4997014;28;20025;-65
2023/12/18 13:44:20;;;;;;;24.35;11.20;;;;;;;;;;4997804;28;20037;-64
2023/12/18 13:46:47;;;;;;;29.10;11.73;;;;;;;;;;4997705;28;20022;-66
2023/12/18 13:49:13;;;;;;;30.70;13.52;;;;;;;;;;4997594;28;21084;-65
2023/12/18 13:51:39;;;;;;;28.27;12.27;;;;;;;;;;4996349;28;20056;-65
2023/12/18 13:54:05;;;;;;;25.30;11.93;;;;;;;;;;4997891;28;20034;-66
2023/12/18 13:56:31;;;;;;;25.23;11.55;;;;;;;;;;4994556;28;20069;-64
2023/12/18 13:58:59;;;;;;;27.00;12.18;;;;;;;;;;4996975;28;20041;-65
2023/12/18 14:01:26;;;;;;;21.48;11.18;;;;;;;;;;4997200;28;20022;-65
2023/12/18 14:03:52;;;;;;;22.48;10.00;;;;;;;;;;4997309;28;20032;-65
2023/12/18 14:06:18;;;;;;;23.85;11.65;;;;;;;;;;4996047;28;20028;-64
2023/12/18 14:08:45;;;;;;;24.48;11.98;;;;;;;;;;4997459;28;20048;-65
2023/12/18 14:11:11;;;;;;;22.95;11.77;;;;;;;;;;4998506;28;20424;-65
2023/12/18 14:13:37;;;;;;;28.77;11.88;;;;;;;;;;4997505;28;21290;-65
2023/12/18 14:16:03;;;;;;;22.77;11.23;;;;;;;;;;4998596;28;20030;-65
2023/12/18 14:18:30;;;;;;;35.10;13.40;;;;;;;;;;4996678;28;20162;-65
2023/12/18 14:20:56;;;;;;;21.17;10.80;;;;;;;;;;4997349;28;20030;-65
2023/12/18 14:23:22;;;;;;;26.00;12.00;;;;;;;;;;4997771;28;20072;-65